sensor_id;sensor_type;location;lat;lon;timestamp;P1;durP1;ratioP1;P2;durP2;ratioP2
75071;SDS011;63651;55.728;38.022;2024-01-16T00:02:03;3.10;;;2.42;;
75071;SDS011;63651;55.728;38.022;2024-01-16T00:07:06;2.75;;;2.40;;
75071;SDS011;63651;55.728;38.022;2024-01-16T00:12:08;2.53;;;2.20;;
75071;SDS011;63651;55.728;38.022;2024-01-16T00:17:11;2.97;;;2.67;;
75071;SDS011;63651;55.728;38.022;2024-01-16T00:22:12;3.08;;;2.45;;
75071;SDS011;63651;55.728;38.022;2024-01-16T00:27:15;2.88;;;2.22;;
75071;SDS011;63651;55.728;38.022;2024-01-16T00:32:17;3.35;;;2.42;;
75071;SDS011;63651;55.728;38.022;2024-01-16T00:37:20;3.80;;;2.20;;
75071;SDS011;63651;55.728;38.022;2024-01-16T00:42:23;2.60;;;2.08;;
75071;SDS011;63651;55.728;38.022;2024-01-16T00:47:25;2.83;;;2.40;;
75071;SDS011;63651;55.728;38.022;2024-01-16T00:52:27;2.97;;;2.47;;
75071;SDS011;63651;55.728;38.022;2024-01-16T00:57:30;2.70;;;2.10;;
75071;SDS011;63651;55.728;38.022;2024-01-16T01:02:32;3.35;;;2.35;;
75071;SDS011;63651;55.728;38.022;2024-01-16T01:07:35;2.88;;;1.95;;
75071;SDS011;63651;55.728;38.022;2024-01-16T01:12:38;2.65;;;2.38;;
75071;SDS011;63651;55.728;38.022;2024-01-16T01:17:40;2.78;;;2.17;;
75071;SDS011;63651;55.728;38.022;2024-01-16T01:22:43;3.08;;;2.20;;
75071;SDS011;63651;55.728;38.022;2024-01-16T01:27:45;3.33;;;2.38;;
75071;SDS011;63651;55.728;38.022;2024-01-16T01:32:48;2.78;;;2.13;;
75071;SDS011;63651;55.728;38.022;2024-01-16T01:37:50;2.13;;;1.70;;
75071;SDS011;63651;55.728;38.022;2024-01-16T01:42:52;2.40;;;2.20;;
75071;SDS011;63651;55.728;38.022;2024-01-16T01:47:55;3.08;;;2.42;;
75071;SDS011;63651;55.728;38.022;2024-01-16T01:52:59;2.80;;;1.80;;
75071;SDS011;63651;55.728;38.022;2024-01-16T01:58:02;2.40;;;1.90;;
75071;SDS011;63651;55.728;38.022;2024-01-16T02:03:05;2.38;;;2.17;;
75071;SDS011;63651;55.728;38.022;2024-01-16T02:08:08;2.53;;;2.13;;
75071;SDS011;63651;55.728;38.022;2024-01-16T02:13:10;2.45;;;1.75;;
75071;SDS011;63651;55.728;38.022;2024-01-16T02:18:12;2.45;;;2.00;;
75071;SDS011;63651;55.728;38.022;2024-01-16T02:23:14;2.80;;;2.20;;
75071;SDS011;63651;55.728;38.022;2024-01-16T02:28:16;2.13;;;1.65;;
75071;SDS011;63651;55.728;38.022;2024-01-16T02:33:19;2.40;;;1.90;;
75071;SDS011;63651;55.728;38.022;2024-01-16T02:38:25;2.40;;;2.00;;
75071;SDS011;63651;55.728;38.022;2024-01-16T02:43:27;2.20;;;1.60;;
75071;SDS011;63651;55.728;38.022;2024-01-16T02:48:30;2.88;;;1.90;;
75071;SDS011;63651;55.728;38.022;2024-01-16T02:53:33;2.30;;;2.03;;
75071;SDS011;63651;55.728;38.022;2024-01-16T02:58:36;2.30;;;2.00;;
75071;SDS011;63651;55.728;38.022;2024-01-16T03:03:38;2.67;;;2.47;;
75071;SDS011;63651;55.728;38.022;2024-01-16T03:08:41;2.15;;;1.95;;
75071;SDS011;63651;55.728;38.022;2024-01-16T03:13:44;3.00;;;2.08;;
75071;SDS011;63651;55.728;38.022;2024-01-16T03:18:46;3.80;;;1.98;;
75071;SDS011;63651;55.728;38.022;2024-01-16T03:23:49;2.70;;;2.00;;
75071;SDS011;63651;55.728;38.022;2024-01-16T03:28:52;3.50;;;1.92;;
75071;SDS011;63651;55.728;38.022;2024-01-16T03:33:55;2.13;;;1.73;;
75071;SDS011;63651;55.728;38.022;2024-01-16T03:38:58;2.25;;;1.98;;
75071;SDS011;63651;55.728;38.022;2024-01-16T03:44:01;2.38;;;1.92;;
75071;SDS011;63651;55.728;38.022;2024-01-16T03:49:03;2.47;;;1.88;;
75071;SDS011;63651;55.728;38.022;2024-01-16T03:54:06;4.53;;;1.77;;
75071;SDS011;63651;55.728;38.022;2024-01-16T03:59:08;2.78;;;1.95;;
75071;SDS011;63651;55.728;38.022;2024-01-16T04:04:10;3.47;;;1.85;;
75071;SDS011;63651;55.728;38.022;2024-01-16T04:09:12;9.85;;;2.92;;
75071;SDS011;63651;55.728;38.022;2024-01-16T04:14:16;14.32;;;3.92;;
75071;SDS011;63651;55.728;38.022;2024-01-16T04:19:19;7.88;;;3.55;;
75071;SDS011;63651;55.728;38.022;2024-01-16T04:24:23;11.60;;;4.07;;
75071;SDS011;63651;55.728;38.022;2024-01-16T04:29:25;16.40;;;4.47;;
75071;SDS011;63651;55.728;38.022;2024-01-16T04:34:29;13.48;;;4.82;;
75071;SDS011;63651;55.728;38.022;2024-01-16T04:39:31;16.35;;;4.90;;
75071;SDS011;63651;55.728;38.022;2024-01-16T04:44:33;12.70;;;4.68;;
75071;SDS011;63651;55.728;38.022;2024-01-16T04:49:35;10.35;;;4.32;;
75071;SDS011;63651;55.728;38.022;2024-01-16T04:54:36;11.90;;;4.30;;
75071;SDS011;63651;55.728;38.022;2024-01-16T04:59:39;12.52;;;3.58;;
75071;SDS011;63651;55.728;38.022;2024-01-16T05:04:43;13.63;;;3.83;;
75071;SDS011;63651;55.728;38.022;2024-01-16T05:09:44;8.68;;;4.78;;
75071;SDS011;63651;55.728;38.022;2024-01-16T05:14:46;8.40;;;4.57;;
75071;SDS011;63651;55.728;38.022;2024-01-16T05:19:49;8.70;;;4.50;;
75071;SDS011;63651;55.728;38.022;2024-01-16T05:24:51;7.30;;;4.70;;
75071;SDS011;63651;55.728;38.022;2024-01-16T05:29:55;7.35;;;4.28;;
75071;SDS011;63651;55.728;38.022;2024-01-16T05:34:57;28.58;;;19.00;;
75071;SDS011;63651;55.728;38.022;2024-01-16T05:40:00;24.73;;;14.73;;
75071;SDS011;63651;55.728;38.022;2024-01-16T05:45:04;15.23;;;8.73;;
75071;SDS011;63651;55.728;38.022;2024-01-16T05:50:08;12.70;;;6.57;;
75071;SDS011;63651;55.728;38.022;2024-01-16T05:55:11;10.43;;;6.00;;
75071;SDS011;63651;55.728;38.022;2024-01-16T06:00:15;8.00;;;5.03;;
75071;SDS011;63651;55.728;38.022;2024-01-16T06:05:19;8.25;;;4.90;;
75071;SDS011;63651;55.728;38.022;2024-01-16T06:10:21;7.25;;;4.57;;
75071;SDS011;63651;55.728;38.022;2024-01-16T06:15:24;6.68;;;4.65;;
75071;SDS011;63651;55.728;38.022;2024-01-16T06:20:25;8.23;;;5.13;;
75071;SDS011;63651;55.728;38.022;2024-01-16T06:25:30;7.07;;;5.05;;
75071;SDS011;63651;55.728;38.022;2024-01-16T06:30:33;8.48;;;5.43;;
75071;SDS011;63651;55.728;38.022;2024-01-16T06:35:35;7.25;;;5.03;;
75071;SDS011;63651;55.728;38.022;2024-01-16T06:40:41;7.95;;;4.20;;
75071;SDS011;63651;55.728;38.022;2024-01-16T06:45:48;5.85;;;4.38;;
75071;SDS011;63651;55.728;38.022;2024-01-16T06:50:50;6.22;;;4.45;;
75071;SDS011;63651;55.728;38.022;2024-01-16T06:55:53;7.20;;;3.50;;
75071;SDS011;63651;55.728;38.022;2024-01-16T07:00:56;6.65;;;4.10;;
75071;SDS011;63651;55.728;38.022;2024-01-16T07:05:59;8.75;;;5.10;;
75071;SDS011;63651;55.728;38.022;2024-01-16T07:11:02;7.38;;;5.20;;
75071;SDS011;63651;55.728;38.022;2024-01-16T07:16:11;8.65;;;5.32;;
75071;SDS011;63651;55.728;38.022;2024-01-16T07:21:17;6.93;;;4.28;;
75071;SDS011;63651;55.728;38.022;2024-01-16T07:26:20;7.30;;;4.78;;
75071;SDS011;63651;55.728;38.022;2024-01-16T07:31:21;8.82;;;5.05;;
75071;SDS011;63651;55.728;38.022;2024-01-16T07:36:23;6.97;;;4.20;;
75071;SDS011;63651;55.728;38.022;2024-01-16T07:41:25;6.85;;;4.60;;
75071;SDS011;63651;55.728;38.022;2024-01-16T07:46:27;6.18;;;4.60;;
75071;SDS011;63651;55.728;38.022;2024-01-16T07:51:30;5.72;;;4.88;;
75071;SDS011;63651;55.728;38.022;2024-01-16T07:56:33;5.28;;;4.30;;
75071;SDS011;63651;55.728;38.022;2024-01-16T08:01:36;5.15;;;4.65;;
75071;SDS011;63651;55.728;38.022;2024-01-16T08:06:39;5.53;;;3.95;;
75071;SDS011;63651;55.728;38.022;2024-01-16T08:11:41;7.10;;;4.07;;
75071;SDS011;63651;55.728;38.022;2024-01-16T08:16:43;5.35;;;4.10;;
75071;SDS011;63651;55.728;38.022;2024-01-16T08:21:46;6.30;;;4.35;;
75071;SDS011;63651;55.728;38.022;2024-01-16T08:26:48;5.80;;;4.00;;
75071;SDS011;63651;55.728;38.022;2024-01-16T08:31:51;4.97;;;3.58;;
75071;SDS011;63651;55.728;38.022;2024-01-16T08:36:54;6.03;;;4.75;;
75071;SDS011;63651;55.728;38.022;2024-01-16T08:41:58;7.18;;;4.20;;
75071;SDS011;63651;55.728;38.022;2024-01-16T08:46:59;6.22;;;4.30;;
75071;SDS011;63651;55.728;38.022;2024-01-16T08:52:08;4.95;;;3.70;;
75071;SDS011;63651;55.728;38.022;2024-01-16T08:57:10;5.35;;;4.15;;
75071;SDS011;63651;55.728;38.022;2024-01-16T09:02:14;4.90;;;4.00;;
75071;SDS011;63651;55.728;38.022;2024-01-16T09:07:17;5.85;;;4.75;;
75071;SDS011;63651;55.728;38.022;2024-01-16T09:12:20;5.85;;;4.45;;
75071;SDS011;63651;55.728;38.022;2024-01-16T09:17:22;4.80;;;3.75;;
75071;SDS011;63651;55.728;38.022;2024-01-16T09:22:23;5.55;;;3.83;;
75071;SDS011;63651;55.728;38.022;2024-01-16T09:27:26;4.97;;;3.97;;
75071;SDS011;63651;55.728;38.022;2024-01-16T09:32:29;5.00;;;3.97;;
75071;SDS011;63651;55.728;38.022;2024-01-16T09:37:31;6.07;;;4.28;;
75071;SDS011;63651;55.728;38.022;2024-01-16T09:42:33;6.47;;;4.30;;
75071;SDS011;63651;55.728;38.022;2024-01-16T09:47:35;6.72;;;4.50;;
75071;SDS011;63651;55.728;38.022;2024-01-16T09:52:37;7.57;;;4.65;;
75071;SDS011;63651;55.728;38.022;2024-01-16T09:57:44;6.53;;;4.75;;
75071;SDS011;63651;55.728;38.022;2024-01-16T10:02:47;6.60;;;4.53;;
75071;SDS011;63651;55.728;38.022;2024-01-16T10:07:49;4.22;;;3.60;;
75071;SDS011;63651;55.728;38.022;2024-01-16T10:12:52;5.53;;;4.40;;
75071;SDS011;63651;55.728;38.022;2024-01-16T10:17:56;5.32;;;4.13;;
75071;SDS011;63651;55.728;38.022;2024-01-16T10:23:00;6.18;;;4.78;;
75071;SDS011;63651;55.728;38.022;2024-01-16T10:28:05;7.60;;;4.30;;
75071;SDS011;63651;55.728;38.022;2024-01-16T10:33:13;6.70;;;4.57;;
75071;SDS011;63651;55.728;38.022;2024-01-16T10:38:22;6.13;;;4.45;;
75071;SDS011;63651;55.728;38.022;2024-01-16T10:43:26;7.63;;;5.22;;
75071;SDS011;63651;55.728;38.022;2024-01-16T10:48:29;5.57;;;4.53;;
75071;SDS011;63651;55.728;38.022;2024-01-16T10:53:32;6.07;;;4.65;;
75071;SDS011;63651;55.728;38.022;2024-01-16T10:58:35;6.88;;;4.38;;
75071;SDS011;63651;55.728;38.022;2024-01-16T11:03:40;4.97;;;4.13;;
75071;SDS011;63651;55.728;38.022;2024-01-16T11:08:49;4.95;;;3.85;;
75071;SDS011;63651;55.728;38.022;2024-01-16T11:13:53;6.28;;;4.35;;
75071;SDS011;63651;55.728;38.022;2024-01-16T11:18:58;6.40;;;4.57;;
75071;SDS011;63651;55.728;38.022;2024-01-16T11:24:00;5.70;;;4.28;;
75071;SDS011;63651;55.728;38.022;2024-01-16T11:50:29;4.50;;;3.15;;
75071;SDS011;63651;55.728;38.022;2024-01-16T11:55:41;3.97;;;3.38;;
75071;SDS011;63651;55.728;38.022;2024-01-16T12:00:59;19.85;;;3.83;;
75071;SDS011;63651;55.728;38.022;2024-01-16T12:06:04;4.38;;;1.90;;
75071;SDS011;63651;55.728;38.022;2024-01-16T12:11:07;4.05;;;2.97;;
75071;SDS011;63651;55.728;38.022;2024-01-16T12:16:10;4.55;;;3.03;;
75071;SDS011;63651;55.728;38.022;2024-01-16T12:21:13;9.57;;;4.32;;
75071;SDS011;63651;55.728;38.022;2024-01-16T12:26:20;4.70;;;3.35;;
75071;SDS011;63651;55.728;38.022;2024-01-16T12:31:23;6.43;;;3.40;;
75071;SDS011;63651;55.728;38.022;2024-01-16T12:36:26;5.10;;;3.35;;
75071;SDS011;63651;55.728;38.022;2024-01-16T12:41:36;5.68;;;3.47;;
75071;SDS011;63651;55.728;38.022;2024-01-16T12:46:43;4.63;;;3.60;;
75071;SDS011;63651;55.728;38.022;2024-01-16T12:52:15;4.68;;;3.45;;
75071;SDS011;63651;55.728;38.022;2024-01-16T12:57:18;4.40;;;3.67;;
75071;SDS011;63651;55.728;38.022;2024-01-16T13:02:24;6.18;;;3.42;;
75071;SDS011;63651;55.728;38.022;2024-01-16T13:07:26;4.68;;;3.25;;
75071;SDS011;63651;55.728;38.022;2024-01-16T13:12:31;6.20;;;3.53;;
75071;SDS011;63651;55.728;38.022;2024-01-16T13:17:35;6.57;;;3.60;;
75071;SDS011;63651;55.728;38.022;2024-01-16T13:22:37;6.20;;;3.80;;
75071;SDS011;63651;55.728;38.022;2024-01-16T13:27:39;5.07;;;3.40;;
75071;SDS011;63651;55.728;38.022;2024-01-16T13:32:42;5.20;;;3.70;;
75071;SDS011;63651;55.728;38.022;2024-01-16T13:37:44;5.15;;;3.70;;
75071;SDS011;63651;55.728;38.022;2024-01-16T13:42:46;6.30;;;4.35;;
75071;SDS011;63651;55.728;38.022;2024-01-16T13:47:49;5.80;;;4.20;;
75071;SDS011;63651;55.728;38.022;2024-01-16T13:52:50;6.95;;;4.90;;
75071;SDS011;63651;55.728;38.022;2024-01-16T13:57:51;5.57;;;4.32;;
75071;SDS011;63651;55.728;38.022;2024-01-16T14:02:54;5.28;;;4.20;;
75071;SDS011;63651;55.728;38.022;2024-01-16T14:07:56;5.57;;;4.25;;
75071;SDS011;63651;55.728;38.022;2024-01-16T14:12:58;6.68;;;3.97;;
75071;SDS011;63651;55.728;38.022;2024-01-16T14:18:01;5.22;;;4.38;;
75071;SDS011;63651;55.728;38.022;2024-01-16T14:23:04;6.43;;;3.92;;
75071;SDS011;63651;55.728;38.022;2024-01-16T14:28:06;7.80;;;5.60;;
75071;SDS011;63651;55.728;38.022;2024-01-16T14:33:09;7.15;;;4.47;;
75071;SDS011;63651;55.728;38.022;2024-01-16T14:38:12;5.38;;;4.38;;
75071;SDS011;63651;55.728;38.022;2024-01-16T14:43:14;5.90;;;4.82;;
75071;SDS011;63651;55.728;38.022;2024-01-16T14:48:18;7.40;;;4.65;;
75071;SDS011;63651;55.728;38.022;2024-01-16T14:53:21;6.95;;;4.78;;
75071;SDS011;63651;55.728;38.022;2024-01-16T14:58:24;6.88;;;4.95;;
75071;SDS011;63651;55.728;38.022;2024-01-16T15:03:26;6.60;;;4.50;;
75071;SDS011;63651;55.728;38.022;2024-01-16T15:08:28;6.93;;;5.30;;
75071;SDS011;63651;55.728;38.022;2024-01-16T15:13:31;6.22;;;4.80;;
75071;SDS011;63651;55.728;38.022;2024-01-16T15:18:34;5.78;;;4.05;;
75071;SDS011;63651;55.728;38.022;2024-01-16T15:23:38;6.32;;;4.45;;
75071;SDS011;63651;55.728;38.022;2024-01-16T15:28:40;6.65;;;4.63;;
75071;SDS011;63651;55.728;38.022;2024-01-16T15:33:43;7.68;;;4.80;;
75071;SDS011;63651;55.728;38.022;2024-01-16T15:38:46;5.75;;;4.80;;
75071;SDS011;63651;55.728;38.022;2024-01-16T15:43:48;6.03;;;4.90;;
75071;SDS011;63651;55.728;38.022;2024-01-16T15:48:50;5.13;;;4.40;;
75071;SDS011;63651;55.728;38.022;2024-01-16T15:53:53;6.07;;;4.95;;
75071;SDS011;63651;55.728;38.022;2024-01-16T15:58:56;8.18;;;5.45;;
75071;SDS011;63651;55.728;38.022;2024-01-16T16:03:59;5.25;;;3.60;;
75071;SDS011;63651;55.728;38.022;2024-01-16T16:09:02;4.93;;;3.45;;
75071;SDS011;63651;55.728;38.022;2024-01-16T16:14:05;4.53;;;3.42;;
75071;SDS011;63651;55.728;38.022;2024-01-16T16:19:07;5.22;;;3.60;;
75071;SDS011;63651;55.728;38.022;2024-01-16T16:24:12;4.60;;;3.42;;
75071;SDS011;63651;55.728;38.022;2024-01-16T16:29:14;4.15;;;3.53;;
75071;SDS011;63651;55.728;38.022;2024-01-16T16:34:17;4.65;;;3.60;;
75071;SDS011;63651;55.728;38.022;2024-01-16T16:39:20;5.22;;;3.15;;
75071;SDS011;63651;55.728;38.022;2024-01-16T16:44:23;4.53;;;3.60;;
75071;SDS011;63651;55.728;38.022;2024-01-16T16:49:26;3.97;;;2.88;;
75071;SDS011;63651;55.728;38.022;2024-01-16T16:54:29;3.88;;;3.50;;
75071;SDS011;63651;55.728;38.022;2024-01-16T16:59:32;5.55;;;3.78;;
75071;SDS011;63651;55.728;38.022;2024-01-16T17:04:35;5.25;;;3.47;;
75071;SDS011;63651;55.728;38.022;2024-01-16T17:09:37;4.65;;;3.65;;
75071;SDS011;63651;55.728;38.022;2024-01-16T17:14:39;5.05;;;3.35;;
75071;SDS011;63651;55.728;38.022;2024-01-16T17:19:42;4.38;;;3.50;;
75071;SDS011;63651;55.728;38.022;2024-01-16T17:24:44;4.78;;;3.72;;
75071;SDS011;63651;55.728;38.022;2024-01-16T17:29:48;5.97;;;3.22;;
75071;SDS011;63651;55.728;38.022;2024-01-16T17:34:51;4.45;;;3.22;;
75071;SDS011;63651;55.728;38.022;2024-01-16T17:39:54;4.05;;;3.42;;
75071;SDS011;63651;55.728;38.022;2024-01-16T17:44:57;6.68;;;3.80;;
75071;SDS011;63651;55.728;38.022;2024-01-16T17:50:06;4.63;;;3.65;;
75071;SDS011;63651;55.728;38.022;2024-01-16T17:55:10;4.72;;;3.70;;
75071;SDS011;63651;55.728;38.022;2024-01-16T18:00:12;4.35;;;3.47;;
75071;SDS011;63651;55.728;38.022;2024-01-16T18:05:18;5.32;;;4.60;;
75071;SDS011;63651;55.728;38.022;2024-01-16T18:10:20;6.03;;;4.47;;
75071;SDS011;63651;55.728;38.022;2024-01-16T18:15:22;6.75;;;5.55;;
75071;SDS011;63651;55.728;38.022;2024-01-16T18:20:23;6.90;;;5.55;;
75071;SDS011;63651;55.728;38.022;2024-01-16T18:25:27;7.53;;;5.70;;
75071;SDS011;63651;55.728;38.022;2024-01-16T18:30:29;6.40;;;5.25;;
75071;SDS011;63651;55.728;38.022;2024-01-16T18:35:33;8.07;;;5.00;;
75071;SDS011;63651;55.728;38.022;2024-01-16T18:40:35;6.72;;;4.78;;
75071;SDS011;63651;55.728;38.022;2024-01-16T18:45:38;5.43;;;4.80;;
75071;SDS011;63651;55.728;38.022;2024-01-16T18:50:41;6.00;;;4.53;;
75071;SDS011;63651;55.728;38.022;2024-01-16T18:55:51;5.88;;;4.35;;
75071;SDS011;63651;55.728;38.022;2024-01-16T19:00:53;5.68;;;4.43;;
75071;SDS011;63651;55.728;38.022;2024-01-16T19:05:58;5.13;;;4.13;;
75071;SDS011;63651;55.728;38.022;2024-01-16T19:11:00;6.10;;;4.47;;
75071;SDS011;63651;55.728;38.022;2024-01-16T19:16:02;4.47;;;3.92;;
75071;SDS011;63651;55.728;38.022;2024-01-16T19:21:08;5.38;;;3.47;;
75071;SDS011;63651;55.728;38.022;2024-01-16T19:26:14;4.60;;;3.75;;
75071;SDS011;63651;55.728;38.022;2024-01-16T19:31:16;4.60;;;3.38;;
75071;SDS011;63651;55.728;38.022;2024-01-16T19:36:18;5.45;;;3.83;;
75071;SDS011;63651;55.728;38.022;2024-01-16T19:41:21;4.65;;;3.63;;
75071;SDS011;63651;55.728;38.022;2024-01-16T19:46:23;5.00;;;3.58;;
75071;SDS011;63651;55.728;38.022;2024-01-16T19:51:26;3.30;;;2.97;;
75071;SDS011;63651;55.728;38.022;2024-01-16T19:56:29;4.30;;;3.63;;
75071;SDS011;63651;55.728;38.022;2024-01-16T20:01:31;3.20;;;2.15;;
75071;SDS011;63651;55.728;38.022;2024-01-16T20:06:33;3.33;;;2.90;;
75071;SDS011;63651;55.728;38.022;2024-01-16T20:11:35;3.03;;;2.33;;
75071;SDS011;63651;55.728;38.022;2024-01-16T20:16:38;2.40;;;1.90;;
75071;SDS011;63651;55.728;38.022;2024-01-16T20:21:41;4.32;;;3.42;;
75071;SDS011;63651;55.728;38.022;2024-01-16T20:26:45;3.95;;;3.55;;
75071;SDS011;63651;55.728;38.022;2024-01-16T20:31:48;3.08;;;2.78;;
75071;SDS011;63651;55.728;38.022;2024-01-16T20:36:51;4.43;;;3.40;;
75071;SDS011;63651;55.728;38.022;2024-01-16T20:41:56;4.50;;;3.47;;
75071;SDS011;63651;55.728;38.022;2024-01-16T20:46:59;4.47;;;3.33;;
75071;SDS011;63651;55.728;38.022;2024-01-16T20:52:06;5.25;;;3.92;;
75071;SDS011;63651;55.728;38.022;2024-01-16T20:57:08;6.40;;;4.25;;
75071;SDS011;63651;55.728;38.022;2024-01-16T21:02:10;3.22;;;2.53;;
75071;SDS011;63651;55.728;38.022;2024-01-16T21:07:13;5.28;;;4.00;;
75071;SDS011;63651;55.728;38.022;2024-01-16T21:12:15;4.95;;;3.70;;
75071;SDS011;63651;55.728;38.022;2024-01-16T21:17:17;4.60;;;3.63;;
75071;SDS011;63651;55.728;38.022;2024-01-16T21:22:20;6.15;;;3.50;;
75071;SDS011;63651;55.728;38.022;2024-01-16T21:27:23;5.60;;;3.65;;
75071;SDS011;63651;55.728;38.022;2024-01-16T21:32:24;4.32;;;2.95;;
75071;SDS011;63651;55.728;38.022;2024-01-16T21:37:27;4.55;;;3.50;;
75071;SDS011;63651;55.728;38.022;2024-01-16T21:42:29;4.18;;;3.20;;
75071;SDS011;63651;55.728;38.022;2024-01-16T21:47:33;6.28;;;2.92;;
75071;SDS011;63651;55.728;38.022;2024-01-16T21:52:35;3.97;;;3.00;;
75071;SDS011;63651;55.728;38.022;2024-01-16T21:57:37;3.92;;;2.97;;
75071;SDS011;63651;55.728;38.022;2024-01-16T22:02:40;4.13;;;2.88;;
75071;SDS011;63651;55.728;38.022;2024-01-16T22:07:42;4.50;;;3.10;;
75071;SDS011;63651;55.728;38.022;2024-01-16T22:12:45;3.47;;;2.80;;
75071;SDS011;63651;55.728;38.022;2024-01-16T22:17:47;3.03;;;2.50;;
75071;SDS011;63651;55.728;38.022;2024-01-16T22:22:49;4.78;;;2.60;;
75071;SDS011;63651;55.728;38.022;2024-01-16T22:27:52;3.28;;;2.33;;
75071;SDS011;63651;55.728;38.022;2024-01-16T22:32:55;3.25;;;2.40;;
75071;SDS011;63651;55.728;38.022;2024-01-16T22:37:56;3.45;;;2.80;;
75071;SDS011;63651;55.728;38.022;2024-01-16T22:43:00;4.20;;;3.13;;
75071;SDS011;63651;55.728;38.022;2024-01-16T22:48:02;4.90;;;2.53;;
75071;SDS011;63651;55.728;38.022;2024-01-16T22:53:12;3.53;;;2.75;;
75071;SDS011;63651;55.728;38.022;2024-01-16T22:58:15;2.75;;;1.83;;
75071;SDS011;63651;55.728;38.022;2024-01-16T23:03:17;2.80;;;2.20;;
75071;SDS011;63651;55.728;38.022;2024-01-16T23:08:20;3.20;;;2.05;;
75071;SDS011;63651;55.728;38.022;2024-01-16T23:13:22;2.58;;;2.05;;
75071;SDS011;63651;55.728;38.022;2024-01-16T23:18:25;3.30;;;2.83;;
75071;SDS011;63651;55.728;38.022;2024-01-16T23:23:28;2.42;;;2.08;;
75071;SDS011;63651;55.728;38.022;2024-01-16T23:28:31;2.78;;;2.28;;
75071;SDS011;63651;55.728;38.022;2024-01-16T23:33:34;3.42;;;2.75;;
75071;SDS011;63651;55.728;38.022;2024-01-16T23:38:36;2.25;;;1.52;;
75071;SDS011;63651;55.728;38.022;2024-01-16T23:43:40;2.22;;;1.92;;
75071;SDS011;63651;55.728;38.022;2024-01-16T23:48:44;1.98;;;1.73;;
75071;SDS011;63651;55.728;38.022;2024-01-16T23:53:48;2.20;;;2.00;;
75071;SDS011;63651;55.728;38.022;2024-01-16T23:58:51;2.58;;;2.00;;
